Time;durP1;ratioP1;P1;durP2;ratioP2;P2;SDS_P1;SDS_P2;PMS_P1;PMS_P2;Temp;Humidity;BMP_temperature;BMP_pressure;BME280_temperature;BME280_humidity;BME280_pressure;Samples;Min_cycle;Max_cycle;Signal;HPM_P1;HPM_P2
2023/04/19 00:02:15;;;;;;;15.27;10.48;;;;;;;-144.85;100.00;61331.59;5111159;28;33202;-86
2023/04/19 00:04:44;;;;;;;14.75;11.13;;;;;;;-144.85;100.00;61331.59;5101335;28;32364;-87
2023/04/19 00:07:12;;;;;;;18.42;11.80;;;;;;;-144.85;100.00;61331.59;5108691;28;32081;-85
2023/04/19 00:09:39;;;;;;;15.38;11.32;;;;;;;-144.85;100.00;61331.59;5108502;28;31505;-84
2023/04/19 00:12:06;;;;;;;16.65;11.30;;;;;;;-144.85;100.00;61331.59;5109199;28;33048;-85
2023/04/19 00:14:34;;;;;;;14.45;10.70;;;;;;;-144.85;100.00;61331.59;5105908;28;32431;-85
2023/04/19 00:17:01;;;;;;;17.23;11.38;;;;;;;-144.85;100.00;61331.59;5092240;28;31277;-85
2023/04/19 00:19:28;;;;;;;14.85;10.75;;;;;;;-144.85;100.00;61331.59;5108312;28;30495;-86
2023/04/19 00:21:55;;;;;;;16.05;11.98;;;;;;;-144.85;100.00;61331.59;5105587;28;32490;-85
2023/04/19 00:24:23;;;;;;;17.30;11.55;;;;;;;-144.85;100.00;61331.59;5096884;28;32367;-84
2023/04/19 00:26:50;;;;;;;16.42;10.93;;;;;;;-144.85;100.00;61331.59;5093542;28;31256;-87
2023/04/19 00:29:17;;;;;;;15.45;10.93;;;;;;;-144.85;100.00;61331.59;5105730;28;30208;-86
2023/04/19 00:31:44;;;;;;;16.20;11.30;;;;;;;-144.85;100.00;61331.59;5075027;28;33281;-83
2023/04/19 00:34:11;;;;;;;16.38;10.93;;;;;;;-144.85;100.00;61331.59;5077692;28;32644;-86
2023/04/19 00:36:39;;;;;;;15.05;10.93;;;;;;;-144.85;100.00;61331.59;5096339;28;30435;-88
2023/04/19 00:39:06;;;;;;;15.57;10.65;;;;;;;-144.85;100.00;61331.59;5072962;28;32128;-84
2023/04/19 00:41:37;;;;;;;16.75;10.43;;;;;;;-144.85;100.00;61331.59;5084913;28;32496;-85
2023/04/19 00:44:04;;;;;;;14.43;11.27;;;;;;;-144.85;100.00;61331.59;5068769;28;31092;-84
2023/04/19 00:46:32;;;;;;;16.30;10.82;;;;;;;-144.85;100.00;61331.59;5088228;28;30426;-85
2023/04/19 00:48:59;;;;;;;15.48;10.98;;;;;;;-144.85;100.00;61331.59;5089325;28;32613;-87
2023/04/19 00:51:27;;;;;;;15.13;10.98;;;;;;;-144.85;100.00;61331.59;5086238;28;31327;-84
2023/04/19 00:53:55;;;;;;;16.85;11.45;;;;;;;-144.85;100.00;61331.59;5105702;28;33106;-84
2023/04/19 00:56:25;;;;;;;15.38;10.93;;;;;;;-144.85;100.00;61331.59;5093845;28;33539;-85
2023/04/19 00:58:53;;;;;;;15.40;11.10;;;;;;;-144.85;100.00;61331.59;5072699;28;30361;-86
2023/04/19 01:01:20;;;;;;;16.30;10.93;;;;;;;-144.85;100.00;61331.59;5088738;28;34173;-87
2023/04/19 01:03:49;;;;;;;13.82;10.43;;;;;;;-144.85;100.00;61331.59;5092575;28;31392;-86
2023/04/19 01:06:20;;;;;;;17.35;11.57;;;;;;;-144.85;100.00;61331.59;5077758;28;30755;-85
2023/04/19 01:08:47;;;;;;;15.07;10.95;;;;;;;-144.85;100.00;61331.59;5089882;28;32223;-85
2023/04/19 01:11:14;;;;;;;16.17;10.65;;;;;;;-144.85;100.00;61331.59;5069517;28;31655;-86
2023/04/19 01:13:43;;;;;;;15.38;10.77;;;;;;;-144.85;100.00;61331.59;5081900;28;32505;-85
2023/04/19 01:16:11;;;;;;;17.17;10.60;;;;;;;-144.85;100.00;61331.59;5098763;28;32419;-86
2023/04/19 01:18:39;;;;;;;15.10;10.77;;;;;;;-144.85;100.00;61331.59;5085840;28;31934;-85
2023/04/19 01:21:07;;;;;;;16.52;10.55;;;;;;;-144.85;100.00;61331.59;5077625;28;31235;-87
2023/04/19 01:23:35;;;;;;;14.30;10.43;;;;;;;-144.85;100.00;61331.59;5086718;28;31178;-85
2023/04/19 01:26:02;;;;;;;17.65;11.35;;;;;;;-144.85;100.00;61331.59;5061072;28;31952;-85
2023/04/19 01:28:30;;;;;;;18.80;11.40;;;;;;;-144.85;100.00;61331.59;5064388;28;32565;-83
2023/04/19 01:30:58;;;;;;;16.30;10.90;;;;;;;-144.85;100.00;61331.59;5080510;28;31117;-86
2023/04/19 01:33:26;;;;;;;15.00;10.80;;;;;;;-144.85;100.00;61331.59;5064702;28;32904;-85
2023/04/19 01:35:53;;;;;;;17.38;11.10;;;;;;;-144.85;100.00;61331.59;5086469;28;32628;-86
2023/04/19 01:38:20;;;;;;;18.25;11.30;;;;;;;-144.85;100.00;61331.59;5076937;28;30634;-86
2023/04/19 01:40:47;;;;;;;16.77;11.75;;;;;;;-144.85;100.00;61331.59;5073334;28;32833;-85
2023/04/19 01:43:16;;;;;;;17.50;11.77;;;;;;;-144.85;100.00;61331.59;5066026;28;34008;-85
2023/04/19 01:45:44;;;;;;;19.70;11.95;;;;;;;-144.85;100.00;61331.59;5092314;28;32170;-86
2023/04/19 01:48:11;;;;;;;16.23;11.48;;;;;;;-144.85;100.00;61331.59;5066849;28;30588;-86
2023/04/19 01:50:39;;;;;;;17.60;11.50;;;;;;;-144.85;100.00;61331.59;5067225;28;32870;-85
2023/04/19 01:53:06;;;;;;;16.63;10.63;;;;;;;-144.85;100.00;61331.59;5078908;28;32330;-85
2023/04/19 01:55:33;;;;;;;16.80;10.63;;;;;;;-144.85;100.00;61331.59;5064425;28;30816;-86
2023/04/19 01:58:01;;;;;;;15.75;11.23;;;;;;;-144.85;100.00;61331.59;5079340;28;32843;-85
2023/04/19 02:00:28;;;;;;;16.40;10.93;;;;;;;-144.85;100.00;61331.59;5077699;28;34214;-85
2023/04/19 02:02:55;;;;;;;15.18;11.20;;;;;;;-144.85;100.00;61331.59;5077843;28;32891;-83
2023/04/19 02:05:22;;;;;;;17.33;11.20;;;;;;;-144.85;100.00;61331.59;5074378;28;31667;-83
2023/04/19 02:07:50;;;;;;;14.88;11.20;;;;;;;-144.85;100.00;61331.59;5074150;28;30838;-85
2023/04/19 02:10:17;;;;;;;16.20;11.00;;;;;;;-144.85;100.00;61331.59;5076855;28;33277;-85
2023/04/19 02:12:44;;;;;;;15.80;11.15;;;;;;;-144.85;100.00;61331.59;5063065;28;32738;-83
2023/04/19 02:15:11;;;;;;;16.58;11.07;;;;;;;-144.85;100.00;61331.59;5064735;28;32408;-85
2023/04/19 02:17:39;;;;;;;17.92;11.38;;;;;;;-144.85;100.00;61331.59;5067269;28;32376;-88
2023/04/19 02:20:08;;;;;;;19.17;11.40;;;;;;;-144.85;100.00;61331.59;5065741;28;31214;-85
2023/04/19 02:22:35;;;;;;;14.98;10.38;;;;;;;-144.85;100.00;61331.59;5080359;28;32386;-83
2023/04/19 02:25:04;;;;;;;14.90;10.90;;;;;;;-144.85;100.00;61331.59;5062587;28;33304;-86
2023/04/19 02:27:31;;;;;;;14.68;10.35;;;;;;;-144.85;100.00;61331.59;5063785;28;32180;-86
2023/04/19 02:29:59;;;;;;;17.92;10.63;;;;;;;-144.85;100.00;61331.59;5059101;28;33569;-86
2023/04/19 02:32:26;;;;;;;14.90;10.13;;;;;;;-144.85;100.00;61331.59;5083842;28;30802;-85
2023/04/19 02:34:54;;;;;;;15.95;10.82;;;;;;;-144.85;100.00;61331.59;5094164;28;32774;-86
2023/04/19 02:37:22;;;;;;;16.88;10.77;;;;;;;-144.85;100.00;61331.59;5067923;28;30423;-87
2023/04/19 02:39:49;;;;;;;14.68;10.15;;;;;;;-144.85;100.00;61331.59;5075960;28;33205;-84
2023/04/19 02:42:16;;;;;;;15.80;10.60;;;;;;;-144.85;100.00;61331.59;5079759;28;32309;-85
2023/04/19 02:44:43;;;;;;;16.67;11.05;;;;;;;-144.85;100.00;61331.59;5081052;28;31266;-85
2023/04/19 02:47:10;;;;;;;13.82;10.15;;;;;;;-144.85;100.00;61331.59;5083591;28;32254;-85
2023/04/19 02:49:40;;;;;;;15.77;10.02;;;;;;;-144.85;100.00;61331.59;5083676;28;33197;-86
2023/04/19 02:52:09;;;;;;;13.70;10.00;;;;;;;-144.85;100.00;61331.59;5081288;28;31016;-87
2023/04/19 02:54:39;;;;;;;15.43;10.10;;;;;;;-144.85;100.00;61331.59;5071231;28;30961;-87
2023/04/19 02:57:07;;;;;;;14.20;10.38;;;;;;;-144.85;100.00;61331.59;5086808;28;30499;-87
2023/04/19 02:59:35;;;;;;;14.15;10.40;;;;;;;-144.85;100.00;61331.59;5067019;28;33558;-86
2023/04/19 03:02:03;;;;;;;14.75;9.55;;;;;;;-144.85;100.00;61331.59;5071146;28;31080;-86
2023/04/19 03:04:31;;;;;;;14.70;10.10;;;;;;;-144.85;100.00;61331.59;5066889;28;32457;-87
2023/04/19 03:06:58;;;;;;;16.65;10.10;;;;;;;-144.85;100.00;61331.59;5082173;28;32546;-85
2023/04/19 03:09:26;;;;;;;14.68;10.25;;;;;;;-144.85;100.00;61331.59;5067538;28;32541;-86
2023/04/19 03:11:53;;;;;;;16.08;9.57;;;;;;;-144.85;100.00;61331.59;5070398;28;32858;-86
2023/04/19 03:14:21;;;;;;;16.70;10.18;;;;;;;-144.85;100.00;61331.59;5087456;28;31299;-87
2023/04/19 03:16:48;;;;;;;13.98;10.20;;;;;;;-144.85;100.00;61331.59;5066831;28;32704;-85
2023/04/19 03:19:16;;;;;;;13.98;10.30;;;;;;;-144.85;100.00;61331.59;5070334;28;31716;-86
2023/04/19 03:21:47;;;;;;;14.48;9.38;;;;;;;-144.85;100.00;61331.59;5079753;28;31631;-87
2023/04/19 03:24:18;;;;;;;12.73;9.38;;;;;;;-144.85;100.00;61331.59;5083046;28;30883;-87
2023/04/19 03:26:49;;;;;;;15.73;9.98;;;;;;;-144.85;100.00;61331.59;5083480;28;30898;-84
2023/04/19 03:29:22;;;;;;;13.57;9.48;;;;;;;-144.85;100.00;61331.59;5074469;28;31573;-86
2023/04/19 03:31:55;;;;;;;15.52;9.82;;;;;;;-144.85;100.00;61331.59;5077397;28;31670;-85
2023/04/19 03:34:23;;;;;;;14.13;9.70;;;;;;;-144.85;100.00;61331.59;5066768;28;31116;-84
2023/04/19 03:36:50;;;;;;;14.60;9.48;;;;;;;-144.85;100.00;61331.59;5071032;28;30690;-86
2023/04/19 03:39:18;;;;;;;14.63;9.45;;;;;;;-144.85;100.00;61331.59;5072649;28;31979;-84
2023/04/19 03:41:49;;;;;;;14.60;9.45;;;;;;;-144.85;100.00;61331.59;5081863;28;31535;-87
2023/04/19 03:44:35;;;;;;;13.95;9.07;;;;;;;-144.85;100.00;61331.59;5102478;28;32646;-87
2023/04/19 03:47:04;;;;;;;13.80;9.10;;;;;;;-144.85;100.00;61331.59;5088405;28;31477;-87
2023/04/19 03:49:38;;;;;;;14.02;9.48;;;;;;;-144.85;100.00;61331.59;5087421;28;32653;-86
2023/04/19 03:52:06;;;;;;;12.82;9.05;;;;;;;-144.85;100.00;61331.59;5093386;28;32359;-86
2023/04/19 03:54:34;;;;;;;11.00;8.82;;;;;;;-144.85;100.00;61331.59;5093115;28;31205;-88
2023/04/19 03:57:03;;;;;;;14.25;8.52;;;;;;;-144.85;100.00;61331.59;5090799;28;31629;-88
2023/04/19 03:59:30;;;;;;;13.32;8.75;;;;;;;-144.85;100.00;61331.59;5096265;28;32822;-88
2023/04/19 04:01:58;;;;;;;13.65;7.88;;;;;;;-144.85;100.00;61331.59;5082242;28;32435;-85
2023/04/19 04:04:26;;;;;;;11.63;8.07;;;;;;;-144.85;100.00;61331.59;5077996;28;31638;-87
2023/04/19 04:06:54;;;;;;;10.82;7.63;;;;;;;-144.85;100.00;61331.59;5086330;28;31561;-87
2023/04/19 04:09:21;;;;;;;11.90;8.18;;;;;;;-144.85;100.00;61331.59;5083123;28;32911;-86
2023/04/19 04:11:49;;;;;;;12.38;7.45;;;;;;;-144.85;100.00;61331.59;5092608;27;32418;-87
2023/04/19 04:14:16;;;;;;;11.50;7.57;;;;;;;-144.85;100.00;61331.59;5097199;28;32211;-88
2023/04/19 04:16:45;;;;;;;10.77;7.68;;;;;;;-144.85;100.00;61331.59;5084300;28;31308;-88
2023/04/19 04:19:14;;;;;;;11.27;7.63;;;;;;;-144.85;100.00;61331.59;5098390;28;32511;-86
2023/04/19 04:21:42;;;;;;;12.68;7.63;;;;;;;-144.85;100.00;61331.59;5083454;28;32271;-87
2023/04/19 04:24:09;;;;;;;10.13;5.93;;;;;;;-144.85;100.00;61331.59;5083428;28;32101;-87
2023/04/19 04:26:44;;;;;;;9.80;6.63;;;;;;;-144.85;100.00;61331.59;5102578;28;30362;-87
2023/04/19 04:29:21;;;;;;;9.65;7.28;;;;;;;-144.85;100.00;61331.59;5085170;28;32542;-87
2023/04/19 04:31:51;;;;;;;10.68;7.05;;;;;;;-144.85;100.00;61331.59;5085395;28;32007;-87
2023/04/19 04:34:23;;;;;;;10.70;7.00;;;;;;;-144.85;100.00;61331.59;5098993;28;31835;-87
2023/04/19 04:36:56;;;;;;;10.32;7.07;;;;;;;-144.85;100.00;61331.59;5093425;27;31968;-87
2023/04/19 04:39:25;;;;;;;12.88;6.50;;;;;;;-144.85;100.00;61331.59;5085983;28;32838;-87
2023/04/19 04:41:52;;;;;;;10.02;6.78;;;;;;;-144.85;100.00;61331.59;5097475;28;32296;-87
2023/04/19 04:44:21;;;;;;;8.63;6.38;;;;;;;-144.85;100.00;61331.59;5102079;27;33518;-87
2023/04/19 04:46:48;;;;;;;9.20;6.28;;;;;;;-144.85;100.00;61331.59;5094684;28;31725;-87
2023/04/19 04:49:22;;;;;;;10.20;6.28;;;;;;;-144.85;100.00;61331.59;5119400;27;32756;-86
2023/04/19 04:51:50;;;;;;;8.52;6.10;;;;;;;-144.85;100.00;61331.59;5092567;28;32182;-86
2023/04/19 04:54:19;;;;;;;9.35;6.03;;;;;;;-144.85;100.00;61331.59;5086689;28;20060;-86
2023/04/19 04:56:47;;;;;;;8.57;5.22;;;;;;;-144.85;100.00;61331.59;5098037;28;31810;-86
2023/04/19 04:59:15;;;;;;;8.43;5.70;;;;;;;-144.85;100.00;61331.59;5101474;27;34214;-86
2023/04/19 05:01:46;;;;;;;9.20;5.85;;;;;;;-144.85;100.00;61331.59;5094403;28;33590;-86
2023/04/19 05:04:14;;;;;;;9.18;6.20;;;;;;;-144.85;100.00;61331.59;5118232;27;31982;-86
2023/04/19 05:06:43;;;;;;;9.20;6.47;;;;;;;-144.85;100.00;61331.59;5094533;28;31364;-87
2023/04/19 05:09:11;;;;;;;11.40;6.43;;;;;;;-144.85;100.00;61331.59;5102014;28;32178;-84
2023/04/19 05:11:39;;;;;;;10.32;5.60;;;;;;;-144.85;100.00;61331.59;5087180;28;31931;-86
2023/04/19 05:14:06;;;;;;;8.30;5.50;;;;;;;-144.85;100.00;61331.59;5100444;27;32220;-86
2023/04/19 05:16:34;;;;;;;9.70;5.82;;;;;;;-144.85;100.00;61331.59;5101318;28;31633;-85
2023/04/19 05:19:02;;;;;;;9.68;5.82;;;;;;;-144.85;100.00;61331.59;5102531;27;32608;-85
2023/04/19 05:21:34;;;;;;;9.07;5.43;;;;;;;-144.85;100.00;61331.59;5111662;27;32306;-86
2023/04/19 05:24:04;;;;;;;8.73;5.88;;;;;;;-144.85;100.00;61331.59;5102288;28;31849;-84
2023/04/19 05:26:33;;;;;;;8.07;5.47;;;;;;;-144.85;100.00;61331.59;5101194;27;32227;-87
2023/04/19 05:29:01;;;;;;;10.57;5.78;;;;;;;-144.85;100.00;61331.59;5102647;28;32573;-86
2023/04/19 05:31:46;;;;;;;8.82;5.60;;;;;;;-144.85;100.00;61331.59;5101363;27;31435;-86
2023/04/19 05:34:35;;;;;;;9.93;6.57;;;;;;;-144.85;100.00;61331.59;5103049;28;32388;-86
2023/04/19 05:37:04;;;;;;;8.15;5.45;;;;;;;-144.85;100.00;61331.59;5086667;28;31001;-87
2023/04/19 05:39:31;;;;;;;8.02;5.60;;;;;;;-144.85;100.00;61331.59;5103401;28;32737;-84
2023/04/19 05:41:59;;;;;;;9.90;5.68;;;;;;;-144.85;100.00;61331.59;5103001;28;33888;-87
2023/04/19 05:44:26;;;;;;;7.38;4.20;;;;;;;-144.85;100.00;61331.59;5093384;28;31466;-87
2023/04/19 05:46:53;;;;;;;7.57;4.47;;;;;;;-144.85;100.00;61331.59;5086897;28;32326;-86
2023/04/19 05:49:53;;;;;;;6.18;4.35;;;;;;;-144.85;100.00;61331.59;5107864;27;33228;-87
2023/04/19 05:52:43;;;;;;;7.13;4.28;;;;;;;-144.85;100.00;61331.59;5095414;28;33215;-87
2023/04/19 05:55:10;;;;;;;7.70;4.22;;;;;;;-144.85;100.00;61331.59;5093910;28;32187;-87
2023/04/19 05:57:42;;;;;;;8.05;4.30;;;;;;;-144.85;100.00;61331.59;5102010;28;31635;-86
2023/04/19 06:00:10;;;;;;;6.20;4.53;;;;;;;-144.85;100.00;61331.59;5100563;28;33133;-87
2023/04/19 06:02:46;;;;;;;7.43;4.30;;;;;;;-144.85;100.00;61331.59;5099082;28;32826;-88
2023/04/19 06:05:14;;;;;;;5.75;3.63;;;;;;;-144.85;100.00;61331.59;5098217;28;31867;-88
2023/04/19 06:07:41;;;;;;;5.82;3.80;;;;;;;-144.85;100.00;61331.59;5114167;27;32325;-87
2023/04/19 06:10:22;;;;;;;6.35;4.35;;;;;;;-144.85;100.00;61331.59;5101658;27;32880;-88
2023/04/19 06:12:49;;;;;;;7.72;4.07;;;;;;;-144.85;100.00;61331.59;5101982;27;34580;-88
2023/04/19 06:15:17;;;;;;;6.85;4.00;;;;;;;-144.85;100.00;61331.59;5102698;27;33186;-88
2023/04/19 06:17:45;;;;;;;7.55;3.80;;;;;;;-144.85;100.00;61331.59;5096380;27;31366;-88
2023/04/19 06:20:13;;;;;;;7.38;4.28;;;;;;;-144.85;100.00;61331.59;5102382;28;32674;-87
2023/04/19 06:22:47;;;;;;;6.57;4.15;;;;;;;-144.85;100.00;61331.59;5106857;28;32832;-89
2023/04/19 06:25:14;;;;;;;7.85;4.60;;;;;;;-144.85;100.00;61331.59;5106161;28;33121;-87
2023/04/19 06:27:42;;;;;;;6.85;4.32;;;;;;;-144.85;100.00;61331.59;5106245;27;33107;-88
2023/04/19 06:30:09;;;;;;;7.10;3.78;;;;;;;-144.85;100.00;61331.59;5089507;28;32386;-87
2023/04/19 06:32:36;;;;;;;8.25;4.10;;;;;;;-144.85;100.00;61331.59;5089200;28;31413;-87
2023/04/19 06:35:05;;;;;;;6.93;3.67;;;;;;;-144.85;100.00;61331.59;5102054;27;33603;-92
2023/04/19 06:37:33;;;;;;;6.63;3.85;;;;;;;-144.85;100.00;61331.59;5105879;28;32218;-88
2023/04/19 06:40:00;;;;;;;6.13;3.90;;;;;;;-144.85;100.00;61331.59;5112313;27;32316;-87
2023/04/19 06:42:27;;;;;;;9.20;4.03;;;;;;;-144.85;100.00;61331.59;5099349;28;31294;-86
2023/04/19 06:44:58;;;;;;;6.20;3.40;;;;;;;-144.85;100.00;61331.59;5103215;28;32990;-90
2023/04/19 06:47:25;;;;;;;12.45;4.18;;;;;;;-144.85;100.00;61331.59;5103133;27;31595;-87
2023/04/19 06:49:53;;;;;;;5.93;3.80;;;;;;;-144.85;100.00;61331.59;5100922;28;33614;-90
2023/04/19 06:52:20;;;;;;;5.88;3.72;;;;;;;-144.85;100.00;61331.59;5108702;28;31496;-88
2023/04/19 06:54:48;;;;;;;8.77;4.00;;;;;;;-144.85;100.00;61331.59;5104606;28;31924;-89
2023/04/19 06:57:17;;;;;;;7.75;3.97;;;;;;;-144.85;100.00;61331.59;5086649;28;30734;-89
2023/04/19 06:59:44;;;;;;;8.77;4.07;;;;;;;-144.85;100.00;61331.59;5092743;28;33091;-91
2023/04/19 07:02:11;;;;;;;6.90;3.65;;;;;;;-144.85;100.00;61331.59;5085236;28;32641;-89
2023/04/19 07:04:38;;;;;;;7.95;3.65;;;;;;;-144.85;100.00;61331.59;5098636;28;32573;-90
2023/04/19 07:07:06;;;;;;;6.28;3.75;;;;;;;-144.85;100.00;61331.59;5072847;28;30007;-90
2023/04/19 07:09:33;;;;;;;5.78;3.85;;;;;;;-144.85;100.00;61331.59;5069853;28;32833;-87
2023/04/19 07:12:00;;;;;;;8.35;4.10;;;;;;;-144.85;100.00;61331.59;5074608;28;33337;-86
2023/04/19 07:14:28;;;;;;;6.65;3.53;;;;;;;-144.85;100.00;61331.59;5090314;28;32491;-86
2023/04/19 07:16:55;;;;;;;6.43;3.47;;;;;;;-144.85;100.00;61331.59;5087625;28;30388;-85
2023/04/19 07:19:22;;;;;;;7.88;3.78;;;;;;;-144.85;100.00;61331.59;5091574;28;34491;-86
2023/04/19 07:21:53;;;;;;;7.47;3.70;;;;;;;-144.85;100.00;61331.59;5095877;28;32965;-87
2023/04/19 07:24:21;;;;;;;6.70;4.00;;;;;;;-144.85;100.00;61331.59;5080208;28;32432;-85
2023/04/19 07:26:48;;;;;;;5.32;3.70;;;;;;;-144.85;100.00;61331.59;5094704;28;31416;-86
2023/04/19 07:29:15;;;;;;;12.05;3.63;;;;;;;-144.85;100.00;61331.59;5090646;28;33933;-86
2023/04/19 07:31:43;;;;;;;6.50;3.63;;;;;;;-144.85;100.00;61331.59;5080218;28;30857;-86
2023/04/19 07:34:10;;;;;;;6.43;3.72;;;;;;;-144.85;100.00;61331.59;5080559;28;32522;-86
2023/04/19 07:36:37;;;;;;;6.97;3.65;;;;;;;-144.85;100.00;61331.59;5080461;28;31278;-86
2023/04/19 07:39:05;;;;;;;7.43;3.45;;;;;;;-144.85;100.00;61331.59;5085143;28;31298;-85
2023/04/19 07:41:32;;;;;;;5.43;3.22;;;;;;;-144.85;100.00;61331.59;5093656;28;32036;-87
2023/04/19 07:44:02;;;;;;;5.40;3.35;;;;;;;-144.85;100.00;61331.59;5063449;28;31997;-87
2023/04/19 07:46:29;;;;;;;6.05;3.42;;;;;;;-144.85;100.00;61331.59;5081333;28;31189;-89
2023/04/19 07:48:56;;;;;;;6.82;3.50;;;;;;;-144.85;100.00;61331.59;5079914;28;33912;-87
2023/04/19 07:51:23;;;;;;;6.28;3.40;;;;;;;-144.85;100.00;61331.59;5062401;28;31205;-87
2023/04/19 07:53:51;;;;;;;5.90;3.30;;;;;;;-144.85;100.00;61331.59;5045880;28;30919;-88
2023/04/19 07:56:19;;;;;;;6.32;3.50;;;;;;;-144.85;100.00;61331.59;5053121;28;30554;-87
2023/04/19 07:58:46;;;;;;;6.53;3.15;;;;;;;-144.85;100.00;61331.59;5075683;28;33058;-86
2023/04/19 08:01:30;;;;;;;5.65;3.00;;;;;;;-144.85;100.00;61331.59;5075137;28;32949;-87
2023/04/19 08:03:59;;;;;;;4.70;3.15;;;;;;;-144.85;100.00;61331.59;5093682;28;33552;-87
2023/04/19 08:06:28;;;;;;;6.80;2.83;;;;;;;-144.85;100.00;61331.59;5078497;28;31267;-87
2023/04/19 08:08:55;;;;;;;7.03;2.65;;;;;;;-144.85;100.00;61331.59;5085302;28;32469;-88
2023/04/19 08:11:23;;;;;;;7.50;2.72;;;;;;;-144.85;100.00;61331.59;5077540;28;32719;-86
2023/04/19 08:13:51;;;;;;;5.75;2.67;;;;;;;-144.85;100.00;61331.59;5096140;28;31902;-87
2023/04/19 08:16:38;;;;;;;4.97;2.67;;;;;;;-144.85;100.00;61331.59;5063848;28;30349;-87
2023/04/19 08:19:13;;;;;;;5.82;3.00;;;;;;;-144.85;100.00;61331.59;5086619;28;33005;-88
2023/04/19 08:21:41;;;;;;;4.45;2.40;;;;;;;-144.85;100.00;61331.59;5065477;28;31368;-88
2023/04/19 08:24:09;;;;;;;8.43;2.85;;;;;;;-144.85;100.00;61331.59;5071215;28;32041;-88
2023/04/19 08:26:37;;;;;;;7.57;2.60;;;;;;;-144.85;100.00;61331.59;5069330;28;30211;-89
2023/04/19 08:29:05;;;;;;;4.20;2.47;;;;;;;-144.85;100.00;61331.59;5067981;28;31266;-89
2023/04/19 08:31:32;;;;;;;6.07;2.60;;;;;;;-144.85;100.00;61331.59;5078269;28;32466;-89
2023/04/19 08:33:59;;;;;;;6.88;2.47;;;;;;;-144.85;100.00;61331.59;5077989;28;33221;-91
2023/04/19 08:36:28;;;;;;;4.95;2.42;;;;;;;-144.85;100.00;61331.59;5061787;28;31926;-89
2023/04/19 08:39:07;;;;;;;3.90;2.45;;;;;;;-144.85;100.00;61331.59;5063754;28;32025;-89
2023/04/19 08:41:52;;;;;;;3.63;2.30;;;;;;;-144.85;100.00;61331.59;5063992;28;32469;-88
2023/04/19 08:44:37;;;;;;;3.75;2.35;;;;;;;-144.85;100.00;61331.59;5067823;28;31024;-89
2023/04/19 08:47:20;;;;;;;3.50;2.30;;;;;;;-144.85;100.00;61331.59;5063731;28;32030;-90
2023/04/19 08:49:59;;;;;;;3.65;2.38;;;;;;;-144.85;100.00;61331.59;5071945;28;33321;-88
2023/04/19 08:52:46;;;;;;;3.85;2.50;;;;;;;-144.85;100.00;61331.59;5075961;28;32481;-89
2023/04/19 08:55:27;;;;;;;5.30;2.83;;;;;;;-144.85;100.00;61331.59;5062926;28;30994;-87
2023/04/19 08:57:55;;;;;;;4.57;2.40;;;;;;;-144.85;100.00;61331.59;5076088;28;32178;-89
2023/04/19 09:00:22;;;;;;;3.80;2.42;;;;;;;-144.85;100.00;61331.59;5058516;28;32863;-87
2023/04/19 09:02:51;;;;;;;3.90;2.25;;;;;;;-144.85;100.00;61331.59;5059417;28;32876;-87
2023/04/19 09:05:18;;;;;;;3.83;2.30;;;;;;;-144.85;100.00;61331.59;5078471;28;32719;-88
2023/04/19 09:07:46;;;;;;;3.55;2.10;;;;;;;-144.85;100.00;61331.59;5073595;28;31438;-90
2023/04/19 09:10:16;;;;;;;3.97;2.17;;;;;;;-144.85;100.00;61331.59;5072251;28;32703;-89
2023/04/19 09:13:02;;;;;;;4.97;2.53;;;;;;;-144.85;100.00;61331.59;5077968;28;32947;-88
2023/04/19 09:15:38;;;;;;;3.80;2.20;;;;;;;-144.85;100.00;61331.59;5058143;28;33380;-88
2023/04/19 09:18:06;;;;;;;;;;;;;;;-144.85;100.00;61331.59;5073351;28;32230;-87
2023/04/19 09:20:42;;;;;;;6.50;2.85;;;;;;;-144.85;100.00;61331.59;5079095;28;32872;-87
2023/04/19 09:23:11;;;;;;;4.90;2.30;;;;;;;-144.85;100.00;61331.59;5061704;28;31094;-91
2023/04/19 09:25:59;;;;;;;5.63;2.30;;;;;;;-144.85;100.00;61331.59;5075084;28;33452;-86
2023/04/19 09:29:01;;;;;;;3.72;2.47;;;;;;;-144.85;100.00;61331.59;5065682;28;30607;-87
2023/04/19 09:31:29;;;;;;;3.58;2.30;;;;;;;-144.85;100.00;61331.59;5098794;28;33015;-87
2023/04/19 09:34:18;;;;;;;4.63;2.22;;;;;;;-144.85;100.00;61331.59;5111501;28;33544;-87
2023/04/19 09:36:45;;;;;;;6.65;2.00;;;;;;;-144.85;100.00;61331.59;5088229;28;32289;-86
2023/04/19 09:39:13;;;;;;;3.05;1.80;;;;;;;-144.85;100.00;61331.59;5096433;28;30616;-87
2023/04/19 09:41:52;;;;;;;4.00;1.95;;;;;;;-144.85;100.00;61331.59;5089284;28;33103;-87
2023/04/19 09:44:20;;;;;;;3.20;2.00;;;;;;;-144.85;100.00;61331.59;5064677;28;32927;-89
2023/04/19 09:47:28;;;;;;;2.95;1.58;;;;;;;-144.85;100.00;61331.59;5082664;28;30840;-85
2023/04/19 09:50:06;;;;;;;3.58;1.60;;;;;;;-144.85;100.00;61331.59;5075683;28;31770;-86
2023/04/19 09:52:49;;;;;;;4.72;1.67;;;;;;;-144.85;100.00;61331.59;5061021;28;33047;-85
2023/04/19 09:55:18;;;;;;;3.15;1.70;;;;;;;-144.85;100.00;61331.59;5075948;28;31140;-85
2023/04/19 09:57:48;;;;;;;2.53;1.35;;;;;;;-144.85;100.00;61331.59;5079496;28;32427;-86
2023/04/19 10:00:15;;;;;;;2.00;1.50;;;;;;;-144.85;100.00;61331.59;5063542;28;31957;-87
2023/04/19 10:02:44;;;;;;;4.28;1.60;;;;;;;-144.85;100.00;61331.59;5078069;28;33248;-86
2023/04/19 10:05:14;;;;;;;2.95;1.58;;;;;;;-144.85;100.00;61331.59;5063460;28;33134;-87
2023/04/19 10:07:51;;;;;;;1.60;1.35;;;;;;;-144.85;100.00;61331.59;5087297;28;31758;-86
2023/04/19 10:10:25;;;;;;;1.52;1.13;;;;;;;-144.85;100.00;61331.59;5064343;28;31789;-86
2023/04/19 10:13:11;;;;;;;2.13;1.25;;;;;;;-144.85;100.00;61331.59;5065472;28;34290;-87
2023/04/19 10:15:47;;;;;;;3.97;1.60;;;;;;;-144.85;100.00;61331.59;5069425;28;32148;-85
2023/04/19 10:18:23;;;;;;;1.90;1.30;;;;;;;-144.85;100.00;61331.59;5064060;28;32398;-87
2023/04/19 10:20:58;;;;;;;2.55;1.50;;;;;;;-144.85;100.00;61331.59;5069676;28;32029;-86
2023/04/19 10:23:27;;;;;;;2.00;1.20;;;;;;;-144.85;100.00;61331.59;5063712;28;34158;-86
2023/04/19 10:25:58;;;;;;;2.95;1.30;;;;;;;-144.85;100.00;61331.59;5079940;28;33037;-86
2023/04/19 10:28:29;;;;;;;3.17;1.38;;;;;;;-144.85;100.00;61331.59;5080324;28;32121;-86
2023/04/19 10:31:02;;;;;;;2.88;1.75;;;;;;;-144.85;100.00;61331.59;5063287;28;30485;-86
2023/04/19 10:33:34;;;;;;;2.53;1.40;;;;;;;-144.85;100.00;61331.59;5081942;28;33037;-87
2023/04/19 10:36:02;;;;;;;4.10;1.60;;;;;;;-144.85;100.00;61331.59;5080937;28;32931;-86
2023/04/19 10:38:46;;;;;;;2.63;1.60;;;;;;;-144.85;100.00;61331.59;5068041;28;32002;-86
2023/04/19 10:41:15;;;;;;;2.97;1.60;;;;;;;-144.85;100.00;61331.59;5083060;28;31108;-85
2023/04/19 10:44:08;;;;;;;2.75;1.73;;;;;;;-144.85;100.00;61331.59;5071407;28;34332;-85
2023/04/19 10:46:37;;;;;;;7.22;1.80;;;;;;;-144.85;100.00;61331.59;5080029;28;32951;-85
2023/04/19 10:49:06;;;;;;;2.30;1.60;;;;;;;-144.85;100.00;61331.59;5094945;28;32126;-85
2023/04/19 10:51:41;;;;;;;2.22;1.45;;;;;;;-144.85;100.00;61331.59;5049154;28;30808;-84
2023/04/19 10:54:27;;;;;;;3.80;1.73;;;;;;;-144.85;100.00;61331.59;5049136;28;32559;-86
2023/04/19 10:57:04;;;;;;;4.75;1.42;;;;;;;-144.85;100.00;61331.59;5067709;28;32777;-87
2023/04/19 10:59:35;;;;;;;2.53;1.45;;;;;;;-144.85;100.00;61331.59;5096015;28;32075;-85
2023/04/19 11:02:26;;;;;;;3.17;1.60;;;;;;;-144.85;100.00;61331.59;5080039;28;30582;-85
2023/04/19 11:04:54;;;;;;;4.43;1.60;;;;;;;-144.85;100.00;61331.59;5080074;28;30970;-86
2023/04/19 11:07:21;;;;;;;3.97;1.70;;;;;;;-144.85;100.00;61331.59;5063193;28;32884;-85
2023/04/19 11:09:49;;;;;;;2.30;1.60;;;;;;;-144.85;100.00;61331.59;5094619;28;30734;-86
2023/04/19 11:12:18;;;;;;;3.08;1.50;;;;;;;-144.85;100.00;61331.59;5089299;28;30901;-87
2023/04/19 11:14:58;;;;;;;2.35;1.50;;;;;;;-144.85;100.00;61331.59;5084345;28;32735;-89
2023/04/19 11:17:30;;;;;;;2.80;1.50;;;;;;;-144.85;100.00;61331.59;5063945;28;30963;-86
2023/04/19 11:20:00;;;;;;;2.50;1.70;;;;;;;-144.85;100.00;61331.59;5080379;28;31732;-86